UKKK/IEV METAR and TAF weather

Enter ICAO airport designator
Station Type Date Time Source
UKKK METAR 2019/02/23 23:00 UTC NOAA

UKKK 232300Z 31003MPS CAVOK M03/M13 Q1036 R26/190050 NOSIG


Station Type Date Time Source
UKKK Decoded METAR 2019/02/23 23:00 UTC NOAA

Kyiv, Ukraine (UKKK) 50-24N 030-34E 167M
Feb 23, 2019 - 06:00 PM EST / 2019.02.23 2300 UTC
Wind: from the NW (310 degrees) at 7 MPH (6 KT):0
Visibility: greater than 7 mile(s):0
Temperature: 26 F (-3 C)
Windchill: 17 F (-8 C):1
Dew Point: 8 F (-13 C)
Relative Humidity: 45%
Pressure (altimeter): 30.59 in. Hg (1036 hPa)
ob: UKKK 232300Z 31003MPS CAVOK M03/M13 Q1036 R26/190050 NOSIG
cycle: 23

Station Type Date Time Source
UKKK TAF 2019/02/23 18:15 UTC NOAA

TAF TAF UKKK 231702Z 2318/2418 30003G08MPS 6000 BKN015 TXM00/2412Z TNM05/2405Z
TEMPO 2320/2408 2000 BR BKN005
TEMPO 2408/2418 2000 -SN BR OVC006


Example: see airport list